createdAt,value
2018-06-21T00:01:33.079Z,21.25
2018-06-21T00:04:01.254Z,21.36
2018-06-21T00:06:29.437Z,21.41
2018-06-21T00:08:57.594Z,21.47
2018-06-21T00:11:25.784Z,21.52
2018-06-21T00:13:53.947Z,21.56
2018-06-21T00:16:22.112Z,21.60
2018-06-21T00:18:50.279Z,21.56
2018-06-21T00:21:18.451Z,21.53
2018-06-21T00:23:46.635Z,21.47
2018-06-21T00:26:14.801Z,21.49
2018-06-21T00:28:42.962Z,21.41
2018-06-21T00:31:11.135Z,21.34
2018-06-21T00:33:39.309Z,21.28
2018-06-21T00:36:07.490Z,21.23
2018-06-21T00:38:35.638Z,21.20
2018-06-21T00:41:03.802Z,21.13
2018-06-21T00:43:32.010Z,21.15
2018-06-21T00:46:00.174Z,21.12
2018-06-21T00:48:28.338Z,21.06
2018-06-21T00:50:56.724Z,21.00
2018-06-21T00:53:25.031Z,20.98
2018-06-21T00:56:27.102Z,20.93
2018-06-21T00:58:55.263Z,20.89
2018-06-21T01:01:23.446Z,20.97
2018-06-21T01:03:51.614Z,20.94
2018-06-21T01:06:19.783Z,20.91
2018-06-21T01:08:47.959Z,20.85
2018-06-21T01:11:16.135Z,20.82
2018-06-21T01:13:44.302Z,20.82
2018-06-21T01:16:12.538Z,20.84
2018-06-21T01:18:40.695Z,20.86
2018-06-21T01:21:08.881Z,20.89
2018-06-21T01:23:37.042Z,20.84
2018-06-21T01:26:05.344Z,20.77
2018-06-21T01:28:33.516Z,20.69
2018-06-21T01:31:01.687Z,20.57
2018-06-21T01:33:29.851Z,20.46
2018-06-21T01:35:58.039Z,20.42
2018-06-21T01:38:26.206Z,20.43
2018-06-21T01:40:54.382Z,20.35
2018-06-21T01:43:22.567Z,20.30
2018-06-21T01:45:50.747Z,20.29
2018-06-21T01:48:18.935Z,20.27
2018-06-21T01:50:47.103Z,20.28
2018-06-21T01:53:15.258Z,20.27
2018-06-21T01:55:43.431Z,20.25
2018-06-21T01:58:11.602Z,20.25
2018-06-21T02:00:39.807Z,20.19
2018-06-21T02:03:07.974Z,20.13
2018-06-21T02:05:36.320Z,20.01
2018-06-21T02:08:04.510Z,19.91
2018-06-21T02:10:32.662Z,19.76
2018-06-21T02:13:00.827Z,19.65
2018-06-21T02:15:28.996Z,19.56
2018-06-21T02:17:57.150Z,19.46
2018-06-21T02:20:25.312Z,19.33
2018-06-21T02:22:53.463Z,19.28
2018-06-21T02:25:21.656Z,19.22
2018-06-21T02:27:49.802Z,19.10
2018-06-21T02:30:17.975Z,19.03
2018-06-21T02:32:46.155Z,18.95
2018-06-21T02:35:14.319Z,18.89
2018-06-21T02:37:42.497Z,18.80
2018-06-21T02:40:10.667Z,18.78
2018-06-21T02:42:38.837Z,18.75
2018-06-21T02:45:07.007Z,18.73
2018-06-21T02:47:35.182Z,18.76
2018-06-21T02:50:03.366Z,18.69
2018-06-21T02:52:32.760Z,18.65
2018-06-21T02:55:00.927Z,18.57
2018-06-21T02:57:29.296Z,18.59
2018-06-21T02:59:57.520Z,18.60
2018-06-21T03:02:25.737Z,18.61
2018-06-21T03:04:53.911Z,18.60
2018-06-21T03:07:22.096Z,18.59
2018-06-21T03:09:50.260Z,18.57
2018-06-21T03:12:23.179Z,18.50
2018-06-21T03:14:52.327Z,18.52
2018-06-21T03:17:20.532Z,18.54
2018-06-21T03:19:48.727Z,18.54
2018-06-21T03:22:16.911Z,18.62
2018-06-21T03:24:45.089Z,18.62
2018-06-21T03:27:13.258Z,18.66
2018-06-21T03:29:41.467Z,18.66
2018-06-21T03:32:09.960Z,18.66
2018-06-21T03:34:38.337Z,18.68
2018-06-21T03:37:06.515Z,18.71
2018-06-21T03:39:34.707Z,18.73
2018-06-21T03:42:02.874Z,18.83
2018-06-21T03:44:31.044Z,18.81
2018-06-21T03:46:59.223Z,18.82
2018-06-21T03:49:27.382Z,18.77
2018-06-21T03:51:55.547Z,18.84
2018-06-21T03:54:23.702Z,18.85
2018-06-21T03:56:51.856Z,18.91
2018-06-21T03:59:20.019Z,18.96
2018-06-21T04:01:48.214Z,18.99
2018-06-21T04:04:16.403Z,19.05
2018-06-21T04:06:44.574Z,19.04
2018-06-21T04:09:12.978Z,19.05
2018-06-21T04:11:41.178Z,19.13
2018-06-21T04:14:09.347Z,19.15
2018-06-21T04:16:37.995Z,19.13
2018-06-21T04:19:06.239Z,19.23
2018-06-21T04:21:34.443Z,19.24
2018-06-21T04:24:02.749Z,19.30
2018-06-21T04:26:30.919Z,19.32
2018-06-21T04:28:59.098Z,19.41
2018-06-21T04:31:27.271Z,19.44
2018-06-21T04:33:55.443Z,19.46
2018-06-21T04:36:24.146Z,19.50
2018-06-21T04:38:52.306Z,19.53
2018-06-21T04:41:20.479Z,19.56
2018-06-21T04:43:48.659Z,19.54
2018-06-21T04:46:16.820Z,19.52
2018-06-21T04:48:45.427Z,19.47
2018-06-21T04:51:13.691Z,19.46
2018-06-21T04:53:41.891Z,19.54
2018-06-21T04:56:10.062Z,19.66
2018-06-21T04:58:38.223Z,19.76
2018-06-21T05:01:06.903Z,19.73
2018-06-21T05:03:35.056Z,19.59
2018-06-21T05:06:03.228Z,19.62
2018-06-21T05:08:31.391Z,19.46
2018-06-21T05:10:59.543Z,19.47
2018-06-21T05:13:27.715Z,19.49
2018-06-21T05:15:55.936Z,19.61
2018-06-21T05:18:24.108Z,19.70
2018-06-21T05:20:53.320Z,19.72
2018-06-21T05:23:21.475Z,19.88
2018-06-21T05:25:49.638Z,19.91
2018-06-21T05:28:17.850Z,19.90
2018-06-21T05:30:46.003Z,19.92
2018-06-21T05:33:14.303Z,19.82
2018-06-21T05:35:42.476Z,19.74
2018-06-21T05:38:10.667Z,19.67
2018-06-21T05:40:38.854Z,19.49
2018-06-21T05:43:07.035Z,19.55
2018-06-21T05:45:35.480Z,19.49
2018-06-21T05:48:04.351Z,19.47
2018-06-21T05:50:33.607Z,19.33
2018-06-21T05:53:02.034Z,19.44
2018-06-21T05:55:31.169Z,19.36
2018-06-21T05:57:59.606Z,19.28
2018-06-21T06:00:27.873Z,19.16
2018-06-21T06:02:56.167Z,19.10
2018-06-21T06:05:24.335Z,18.86
2018-06-21T06:07:52.547Z,18.82
2018-06-21T06:10:21.403Z,18.77
2018-06-21T06:12:49.611Z,18.68
2018-06-21T06:15:17.794Z,18.71
2018-06-21T06:17:46.020Z,18.72
2018-06-21T06:20:14.196Z,18.74
2018-06-21T06:22:42.399Z,18.79
2018-06-21T06:25:10.575Z,18.77
2018-06-21T06:27:38.762Z,18.69
2018-06-21T06:30:07.451Z,18.56
2018-06-21T06:32:35.659Z,18.56
2018-06-21T06:35:03.843Z,18.51
2018-06-21T06:37:32.042Z,18.42
2018-06-21T06:40:00.252Z,18.33
2018-06-21T06:42:28.435Z,18.30
2018-06-21T06:44:56.630Z,18.30
2018-06-21T06:47:25.056Z,18.26
2018-06-21T06:49:53.255Z,18.23
2018-06-21T06:52:21.459Z,18.22
2018-06-21T06:54:49.701Z,18.23
2018-06-21T06:57:17.878Z,18.20
2018-06-21T06:59:46.093Z,18.28
2018-06-21T07:02:14.292Z,18.21
2018-06-21T07:04:42.484Z,18.26
2018-06-21T07:07:10.695Z,18.35
2018-06-21T07:09:38.852Z,18.36
2018-06-21T07:12:07.058Z,18.49
2018-06-21T07:14:35.247Z,18.50
2018-06-21T07:17:03.446Z,18.52
2018-06-21T07:19:31.623Z,18.55
2018-06-21T07:21:59.815Z,18.53
2018-06-21T07:24:27.991Z,18.50
2018-06-21T07:26:56.175Z,18.53
2018-06-21T07:29:24.346Z,18.52
2018-06-21T07:31:52.534Z,18.54
2018-06-21T07:34:20.711Z,18.64
2018-06-21T07:36:48.879Z,18.62
2018-06-21T07:39:17.061Z,18.60
2018-06-21T07:41:45.239Z,18.64
2018-06-21T07:44:13.411Z,18.55
2018-06-21T07:46:41.579Z,18.65
2018-06-21T07:49:09.754Z,18.69
2018-06-21T07:51:37.919Z,18.76
2018-06-21T07:54:06.099Z,18.99
2018-06-21T07:56:34.285Z,19.21
2018-06-21T07:59:02.483Z,19.45
2018-06-21T08:01:30.660Z,19.70
2018-06-21T08:03:58.819Z,19.80
2018-06-21T08:06:27.011Z,19.83
2018-06-21T08:08:55.154Z,19.88
2018-06-21T08:11:23.316Z,19.75
2018-06-21T08:13:51.470Z,19.75
2018-06-21T08:16:19.643Z,19.72
2018-06-21T08:18:47.801Z,19.71
2018-06-21T08:21:15.950Z,19.84
2018-06-21T08:23:44.134Z,19.74
2018-06-21T08:26:12.303Z,19.58
2018-06-21T08:28:40.508Z,19.22
2018-06-21T08:31:08.770Z,19.40
2018-06-21T08:33:36.951Z,19.52
2018-06-21T08:36:05.119Z,19.59
2018-06-21T08:38:33.303Z,19.75
2018-06-21T08:41:01.474Z,19.94
2018-06-21T08:43:29.646Z,19.83
2018-06-21T08:45:57.832Z,19.65
2018-06-21T08:48:25.986Z,19.96
2018-06-21T08:50:54.175Z,20.13
2018-06-21T08:53:22.505Z,20.27
2018-06-21T08:55:50.658Z,20.40
2018-06-21T08:58:18.890Z,20.57
2018-06-21T09:00:47.002Z,20.86
2018-06-21T09:03:15.202Z,20.99
2018-06-21T09:05:43.363Z,20.82
2018-06-21T09:08:11.515Z,20.51
2018-06-21T09:10:39.699Z,20.62
2018-06-21T09:13:07.874Z,20.41
2018-06-21T09:15:36.084Z,20.42
2018-06-21T09:18:04.251Z,20.39
2018-06-21T09:20:32.435Z,20.34
2018-06-21T09:23:00.602Z,20.52
2018-06-21T09:25:28.759Z,20.74
2018-06-21T09:27:56.930Z,21.13
2018-06-21T09:30:25.095Z,21.17
2018-06-21T09:32:53.265Z,20.89
2018-06-21T09:35:21.424Z,20.49
2018-06-21T09:37:54.919Z,20.79
2018-06-21T09:40:28.428Z,20.95
2018-06-21T09:43:01.799Z,21.05
2018-06-21T09:45:35.236Z,20.99
2018-06-21T09:48:08.683Z,20.58
2018-06-21T09:50:36.838Z,20.60
2018-06-21T09:53:05.021Z,20.36
2018-06-21T09:55:33.195Z,20.76
2018-06-21T09:58:01.387Z,20.77
2018-06-21T10:00:34.774Z,21.14
2018-06-21T10:03:02.938Z,21.48
2018-06-21T10:05:31.115Z,21.57
2018-06-21T10:07:59.303Z,21.84
2018-06-21T10:10:27.466Z,22.27
2018-06-21T10:12:55.630Z,22.49
2018-06-21T10:15:23.804Z,22.54
2018-06-21T10:17:51.986Z,22.37
2018-06-21T10:20:20.158Z,21.79
2018-06-21T10:22:48.314Z,22.13
2018-06-21T10:25:16.470Z,21.86
2018-06-21T10:27:44.648Z,21.79
2018-06-21T10:30:12.814Z,21.32
2018-06-21T10:32:40.974Z,21.67
2018-06-21T10:35:09.165Z,22.27
2018-06-21T10:37:37.319Z,22.29
2018-06-21T10:40:05.503Z,22.70
2018-06-21T10:42:33.678Z,23.14
2018-06-21T10:45:01.828Z,23.47
2018-06-21T10:47:29.994Z,23.38
2018-06-21T10:49:58.154Z,23.33
2018-06-21T10:52:26.323Z,23.38
2018-06-21T10:54:54.495Z,23.65
2018-06-21T10:57:22.659Z,23.73
2018-06-21T10:59:50.819Z,23.94
2018-06-21T11:02:19.040Z,23.81
2018-06-21T11:04:47.206Z,23.96
2018-06-21T11:07:15.491Z,23.55
2018-06-21T11:09:43.666Z,23.61
2018-06-21T11:12:11.833Z,23.54
2018-06-21T11:14:40.007Z,24.05
2018-06-21T11:17:08.175Z,24.50
2018-06-21T11:19:36.352Z,24.43
2018-06-21T11:22:04.507Z,24.58
2018-06-21T11:24:32.675Z,23.31
2018-06-21T11:27:00.886Z,22.54
2018-06-21T11:29:29.043Z,22.70
2018-06-21T11:31:57.199Z,22.71
2018-06-21T11:34:25.375Z,22.66
2018-06-21T11:36:53.530Z,22.94
2018-06-21T11:39:21.719Z,22.86
2018-06-21T11:41:49.894Z,22.89
2018-06-21T11:44:18.055Z,22.78
2018-06-21T11:46:46.267Z,23.03
2018-06-21T11:49:14.411Z,23.20
2018-06-21T11:51:42.582Z,23.62
2018-06-21T11:54:10.733Z,23.67
2018-06-21T11:56:38.901Z,24.02
2018-06-21T11:59:07.068Z,23.91
2018-06-21T12:01:35.299Z,23.79
2018-06-21T12:04:03.463Z,23.79
2018-06-21T12:06:31.742Z,23.30
2018-06-21T12:08:59.901Z,23.24
2018-06-21T12:11:28.070Z,23.26
2018-06-21T12:13:56.239Z,23.15
2018-06-21T12:16:24.403Z,23.36
2018-06-21T12:18:52.567Z,22.95
2018-06-21T12:21:20.735Z,22.55
2018-06-21T12:23:48.903Z,22.04
2018-06-21T12:26:17.106Z,21.75
2018-06-21T12:28:45.271Z,21.87
2018-06-21T12:31:13.423Z,22.04
2018-06-21T12:33:41.626Z,21.91
2018-06-21T12:36:09.803Z,22.08
2018-06-21T12:38:37.966Z,22.39
2018-06-21T12:41:06.147Z,22.55
2018-06-21T12:43:34.314Z,22.78
2018-06-21T12:46:02.463Z,22.67
2018-06-21T12:48:30.642Z,22.85
2018-06-21T12:50:58.786Z,22.59
2018-06-21T12:53:26.959Z,22.42
2018-06-21T12:55:55.122Z,22.26
2018-06-21T12:58:23.319Z,22.58
2018-06-21T13:00:51.487Z,22.28
2018-06-21T13:03:19.655Z,22.28
2018-06-21T13:05:47.822Z,22.33
2018-06-21T13:09:24.439Z,22.51
2018-06-21T13:12:18.407Z,22.32
2018-06-21T13:14:46.602Z,22.19
2018-06-21T13:17:14.782Z,21.90
2018-06-21T13:19:42.954Z,21.79
2018-06-21T13:22:11.129Z,20.89
2018-06-21T13:24:39.311Z,21.02
2018-06-21T13:27:07.512Z,20.99
2018-06-21T13:29:35.933Z,20.90
2018-06-21T13:32:04.115Z,21.18
2018-06-21T13:34:32.288Z,21.36
2018-06-21T13:37:00.502Z,21.45
2018-06-21T13:39:28.635Z,21.37
2018-06-21T13:41:56.818Z,21.44
2018-06-21T13:44:24.982Z,21.35
2018-06-21T13:46:53.150Z,21.47
2018-06-21T13:49:21.691Z,21.52
2018-06-21T13:51:49.882Z,21.37
2018-06-21T13:54:18.050Z,21.56
2018-06-21T13:56:47.355Z,21.64
2018-06-21T13:59:16.195Z,21.81
2018-06-21T14:01:44.327Z,21.58
2018-06-21T14:04:12.664Z,21.34
2018-06-21T14:06:40.943Z,21.33
2018-06-21T14:09:10.959Z,21.55
2018-06-21T14:11:39.154Z,21.61
2018-06-21T14:14:07.370Z,21.59
2018-06-21T14:16:35.877Z,21.53
2018-06-21T14:19:04.084Z,21.56
2018-06-21T14:21:32.325Z,21.49
2018-06-21T14:24:00.495Z,21.42
2018-06-21T14:26:28.661Z,21.36
2018-06-21T14:28:56.970Z,21.62
2018-06-21T14:31:25.514Z,21.68
2018-06-21T14:33:54.100Z,21.24
2018-06-21T14:36:22.299Z,21.44
2018-06-21T14:38:50.454Z,21.88
2018-06-21T14:41:18.610Z,21.71
2018-06-21T14:43:46.766Z,21.83
2018-06-21T14:46:14.938Z,21.81
2018-06-21T14:48:43.103Z,21.93
2018-06-21T14:51:11.283Z,21.98
2018-06-21T14:53:39.477Z,21.64
2018-06-21T14:56:07.603Z,21.06
2018-06-21T14:58:35.770Z,20.43
2018-06-21T15:01:03.959Z,19.75
2018-06-21T15:03:32.138Z,19.43
2018-06-21T15:06:00.419Z,19.26
2018-06-21T15:08:28.587Z,19.21
2018-06-21T15:10:56.921Z,19.07
2018-06-21T15:13:25.096Z,18.99
2018-06-21T15:15:53.268Z,19.12
2018-06-21T15:18:21.428Z,19.65
2018-06-21T15:20:49.590Z,19.78
2018-06-21T15:23:17.745Z,19.70
2018-06-21T15:25:45.919Z,19.64
2018-06-21T15:28:14.098Z,19.79
2018-06-21T15:30:42.283Z,19.62
2018-06-21T15:33:10.439Z,19.62
2018-06-21T15:35:38.594Z,19.32
2018-06-21T15:38:06.777Z,19.33
2018-06-21T15:40:34.962Z,19.07
2018-06-21T15:43:03.142Z,19.12
2018-06-21T15:45:31.419Z,19.31
2018-06-21T15:47:59.540Z,19.53
2018-06-21T15:50:27.694Z,19.60
2018-06-21T15:52:55.900Z,20.00
2018-06-21T15:55:24.063Z,20.17
2018-06-21T15:57:52.223Z,20.38
2018-06-21T16:00:20.379Z,20.18
2018-06-21T16:02:48.574Z,19.86
2018-06-21T16:05:16.732Z,19.58
2018-06-21T16:07:44.895Z,19.31
2018-06-21T16:10:13.050Z,19.16
2018-06-21T16:12:41.224Z,19.08
2018-06-21T16:15:09.398Z,19.14
2018-06-21T16:17:37.564Z,19.24
2018-06-21T16:20:05.726Z,19.17
2018-06-21T16:22:33.891Z,19.17
2018-06-21T16:25:02.043Z,19.38
2018-06-21T16:27:30.200Z,19.39
2018-06-21T16:29:58.380Z,19.23
2018-06-21T16:32:26.552Z,19.12
2018-06-21T16:34:54.787Z,19.32
2018-06-21T16:37:23.020Z,19.17
2018-06-21T16:39:51.489Z,19.13
2018-06-21T16:42:19.691Z,18.81
2018-06-21T16:44:47.948Z,18.75
2018-06-21T16:47:16.179Z,18.83
2018-06-21T16:49:44.446Z,18.78
2018-06-21T16:52:12.881Z,18.87
2018-06-21T16:54:41.679Z,18.84
2018-06-21T16:57:09.879Z,19.06
2018-06-21T16:59:38.047Z,19.07
2018-06-21T17:02:06.242Z,18.84
2018-06-21T17:04:34.462Z,18.78
2018-06-21T17:07:02.691Z,18.89
2018-06-21T17:09:30.882Z,18.82
2018-06-21T17:11:59.055Z,18.68
2018-06-21T17:14:27.238Z,18.78
2018-06-21T17:16:55.531Z,18.73
2018-06-21T17:19:23.682Z,18.55
2018-06-21T17:21:51.902Z,18.33
2018-06-21T17:24:20.131Z,18.17
2018-06-21T17:26:48.323Z,18.07
2018-06-21T17:29:16.549Z,18.16
2018-06-21T17:31:44.819Z,18.18
2018-06-21T17:34:12.966Z,18.38
2018-06-21T17:36:41.553Z,18.20
2018-06-21T17:39:10.651Z,18.10
2018-06-21T17:41:38.812Z,18.17
2018-06-21T17:44:06.982Z,18.22
2018-06-21T17:46:35.315Z,18.27
2018-06-21T17:49:03.532Z,18.15
2018-06-21T17:51:31.773Z,17.83
2018-06-21T17:53:59.925Z,17.74
2018-06-21T17:56:28.127Z,17.58
2018-06-21T17:58:56.299Z,17.51
2018-06-21T18:01:24.478Z,17.53
2018-06-21T18:03:52.691Z,17.48
2018-06-21T18:06:20.936Z,17.50
2018-06-21T18:08:49.502Z,17.39
2018-06-21T18:11:17.770Z,17.35
2018-06-21T18:13:45.987Z,17.37
2018-06-21T18:16:14.385Z,17.43
2018-06-21T18:18:42.715Z,17.26
2018-06-21T18:21:10.920Z,17.27
2018-06-21T18:23:39.227Z,17.19
2018-06-21T18:26:07.868Z,17.03
2018-06-21T18:28:36.114Z,16.96
2018-06-21T18:31:04.330Z,17.00
2018-06-21T18:33:32.695Z,17.12
2018-06-21T18:36:00.945Z,17.12
2018-06-21T18:38:29.191Z,17.14
2018-06-21T18:40:57.371Z,17.15
2018-06-21T18:43:25.560Z,17.19
2018-06-21T18:45:53.758Z,17.07
2018-06-21T18:48:22.003Z,17.01
2018-06-21T18:50:50.465Z,16.98
2018-06-21T18:53:18.854Z,17.11
2018-06-21T18:55:47.335Z,17.10
2018-06-21T18:58:15.603Z,16.96
2018-06-21T19:00:44.102Z,16.94
2018-06-21T19:03:12.331Z,16.86
2018-06-21T19:05:40.531Z,16.72
2018-06-21T19:08:14.055Z,16.90
2018-06-21T19:10:47.769Z,17.06
2018-06-21T19:13:15.803Z,16.94
2018-06-21T19:15:44.017Z,16.80
2018-06-21T19:18:12.258Z,16.53
2018-06-21T19:20:40.467Z,16.39
2018-06-21T19:23:08.727Z,16.29
2018-06-21T19:25:36.967Z,16.10
2018-06-21T19:28:05.063Z,16.02
2018-06-21T19:30:33.240Z,15.80
2018-06-21T19:33:01.412Z,15.66
2018-06-21T19:35:29.591Z,15.50
2018-06-21T19:37:57.778Z,15.51
2018-06-21T19:40:25.951Z,15.41
2018-06-21T19:42:54.163Z,15.34
2018-06-21T19:45:22.315Z,15.24
2018-06-21T19:47:50.467Z,15.15
2018-06-21T19:50:18.639Z,15.11
2018-06-21T19:52:46.795Z,15.05
2018-06-21T19:55:16.287Z,15.08
2018-06-21T19:57:44.459Z,15.09
2018-06-21T20:00:12.630Z,15.00
2018-06-21T20:02:46.130Z,15.01
2018-06-21T20:05:14.303Z,14.96
2018-06-21T20:07:42.475Z,14.91
2018-06-21T20:10:10.775Z,14.95
2018-06-21T20:12:38.983Z,14.85
2018-06-21T20:15:07.110Z,14.76
2018-06-21T20:17:35.443Z,14.80
2018-06-21T20:20:08.926Z,14.65
2018-06-21T20:22:37.111Z,14.72
2018-06-21T20:25:05.271Z,14.68
2018-06-21T20:27:33.429Z,14.79
2018-06-21T20:30:01.595Z,14.80
2018-06-21T20:32:29.746Z,14.79
2018-06-21T20:34:58.053Z,14.78
2018-06-21T20:37:26.442Z,14.71
2018-06-21T20:39:54.615Z,14.63
2018-06-21T20:42:22.779Z,14.52
2018-06-21T20:44:50.946Z,14.47
2018-06-21T20:47:19.330Z,14.51
2018-06-21T20:49:47.607Z,14.44
2018-06-21T20:52:21.155Z,14.45
2018-06-21T20:54:49.314Z,14.45
2018-06-21T20:57:17.472Z,14.42
2018-06-21T20:59:45.627Z,14.40
2018-06-21T21:02:13.793Z,14.31
2018-06-21T21:05:18.548Z,14.34
2018-06-21T21:07:47.923Z,14.26
2018-06-21T21:10:17.159Z,14.19
2018-06-21T21:12:45.286Z,14.10
2018-06-21T21:15:14.266Z,14.11
2018-06-21T21:17:42.578Z,14.08
2018-06-21T21:20:11.047Z,14.11
2018-06-21T21:22:40.060Z,14.10
2018-06-21T21:25:08.198Z,14.09
2018-06-21T21:27:36.348Z,14.23
2018-06-21T21:30:06.847Z,14.27
2018-06-21T21:32:35.129Z,14.21
2018-06-21T21:35:03.275Z,14.13
2018-06-21T21:37:31.387Z,14.08
2018-06-21T21:40:01.694Z,14.11
2018-06-21T21:42:30.962Z,14.12
2018-06-21T21:44:59.136Z,14.14
2018-06-21T21:47:27.303Z,14.01
2018-06-21T21:49:55.590Z,14.01
2018-06-21T21:52:23.766Z,14.02
2018-06-21T21:54:51.934Z,13.93
2018-06-21T21:57:20.231Z,13.91
2018-06-21T21:59:49.207Z,13.80
2018-06-21T22:02:17.786Z,13.75
2018-06-21T22:04:46.274Z,13.67
2018-06-21T22:07:14.547Z,13.65
2018-06-21T22:09:42.830Z,13.60
2018-06-21T22:12:10.964Z,13.53
2018-06-21T22:14:39.121Z,13.45
2018-06-21T22:17:07.261Z,13.43
2018-06-21T22:19:35.390Z,13.39
2018-06-21T22:22:03.515Z,13.43
2018-06-21T22:24:31.654Z,13.33
2018-06-21T22:26:59.794Z,13.23
2018-06-21T22:29:27.934Z,13.25
2018-06-21T22:31:56.075Z,13.20
2018-06-21T22:34:24.202Z,13.17
2018-06-21T22:36:52.359Z,13.08
2018-06-21T22:39:20.490Z,13.09
2018-06-21T22:41:48.622Z,13.05
2018-06-21T22:44:16.747Z,12.98
2018-06-21T22:46:44.862Z,12.94
2018-06-21T22:49:13.008Z,12.92
2018-06-21T22:51:41.147Z,12.93
2018-06-21T22:54:09.272Z,12.92
2018-06-21T22:56:37.404Z,12.86
2018-06-21T22:59:05.527Z,12.82
2018-06-21T23:01:33.666Z,12.77
2018-06-21T23:04:01.807Z,12.68
2018-06-21T23:06:29.942Z,12.74
2018-06-21T23:08:58.084Z,12.69
2018-06-21T23:11:26.223Z,12.69
2018-06-21T23:13:54.354Z,12.71
2018-06-21T23:16:22.495Z,12.72
2018-06-21T23:19:01.952Z,12.72
2018-06-21T23:21:30.077Z,12.68
2018-06-21T23:23:58.215Z,12.62
2018-06-21T23:26:26.338Z,12.60
2018-06-21T23:28:54.480Z,12.60
2018-06-21T23:31:22.607Z,12.49
2018-06-21T23:33:50.744Z,12.44
2018-06-21T23:36:18.887Z,12.41
2018-06-21T23:38:47.025Z,12.37
2018-06-21T23:41:15.164Z,12.36
2018-06-21T23:43:43.292Z,12.38
2018-06-21T23:46:11.435Z,12.36
2018-06-21T23:48:39.582Z,12.30
2018-06-21T23:51:07.719Z,12.33
2018-06-21T23:53:35.870Z,12.28
2018-06-21T23:56:04.001Z,12.30
2018-06-21T23:58:32.150Z,12.27
